sensor_id;sensor_type;location;lat;lon;timestamp;temperature;humidity
35645;DHT22;21764;52.042;6.830;2023-04-21T00:03:58;9.00;99.90
35645;DHT22;21764;52.042;6.830;2023-04-21T00:08:59;9.00;99.90
35645;DHT22;21764;52.042;6.830;2023-04-21T00:14:00;8.90;99.90
35645;DHT22;21764;52.042;6.830;2023-04-21T00:19:00;8.90;99.90
35645;DHT22;21764;52.042;6.830;2023-04-21T00:24:03;9.00;99.90
35645;DHT22;21764;52.042;6.830;2023-04-21T00:29:04;9.00;99.90
35645;DHT22;21764;52.042;6.830;2023-04-21T00:34:05;9.10;99.90
35645;DHT22;21764;52.042;6.830;2023-04-21T00:39:05;9.10;99.90
35645;DHT22;21764;52.042;6.830;2023-04-21T00:44:08;9.20;99.90
35645;DHT22;21764;52.042;6.830;2023-04-21T00:49:09;9.20;99.90
35645;DHT22;21764;52.042;6.830;2023-04-21T00:54:11;9.20;99.90
35645;DHT22;21764;52.042;6.830;2023-04-21T00:59:12;9.20;99.90
35645;DHT22;21764;52.042;6.830;2023-04-21T01:04:13;9.20;99.90
35645;DHT22;21764;52.042;6.830;2023-04-21T01:09:13;9.20;99.90
35645;DHT22;21764;52.042;6.830;2023-04-21T01:14:14;9.20;99.90
35645;DHT22;21764;52.042;6.830;2023-04-21T01:19:15;9.30;99.90
35645;DHT22;21764;52.042;6.830;2023-04-21T01:24:16;9.20;99.90
35645;DHT22;21764;52.042;6.830;2023-04-21T01:29:16;9.20;99.90
35645;DHT22;21764;52.042;6.830;2023-04-21T01:34:17;9.20;99.90
35645;DHT22;21764;52.042;6.830;2023-04-21T01:39:18;9.20;99.90
35645;DHT22;21764;52.042;6.830;2023-04-21T01:44:18;9.20;99.90
35645;DHT22;21764;52.042;6.830;2023-04-21T01:49:20;9.20;99.90
35645;DHT22;21764;52.042;6.830;2023-04-21T01:54:21;9.20;99.90
35645;DHT22;21764;52.042;6.830;2023-04-21T01:59:22;9.20;99.90
35645;DHT22;21764;52.042;6.830;2023-04-21T02:04:22;9.20;99.90
35645;DHT22;21764;52.042;6.830;2023-04-21T02:09:23;9.20;99.90
35645;DHT22;21764;52.042;6.830;2023-04-21T02:14:24;9.20;99.90
35645;DHT22;21764;52.042;6.830;2023-04-21T02:19:25;9.10;99.90
35645;DHT22;21764;52.042;6.830;2023-04-21T02:24:26;9.10;99.90
35645;DHT22;21764;52.042;6.830;2023-04-21T02:29:27;9.10;99.90
35645;DHT22;21764;52.042;6.830;2023-04-21T02:34:28;9.10;99.90
35645;DHT22;21764;52.042;6.830;2023-04-21T02:39:28;9.10;99.90
35645;DHT22;21764;52.042;6.830;2023-04-21T02:44:29;9.10;99.90
35645;DHT22;21764;52.042;6.830;2023-04-21T02:49:30;9.10;99.90
35645;DHT22;21764;52.042;6.830;2023-04-21T02:54:31;9.00;99.90
35645;DHT22;21764;52.042;6.830;2023-04-21T02:59:31;9.00;99.90
35645;DHT22;21764;52.042;6.830;2023-04-21T03:04:32;9.10;99.90
35645;DHT22;21764;52.042;6.830;2023-04-21T03:09:34;9.10;99.90
35645;DHT22;21764;52.042;6.830;2023-04-21T03:14:35;9.00;99.90
35645;DHT22;21764;52.042;6.830;2023-04-21T03:19:36;9.00;99.90
35645;DHT22;21764;52.042;6.830;2023-04-21T03:24:36;8.90;99.90
35645;DHT22;21764;52.042;6.830;2023-04-21T03:29:37;8.90;99.90
35645;DHT22;21764;52.042;6.830;2023-04-21T03:34:37;8.80;99.90
35645;DHT22;21764;52.042;6.830;2023-04-21T03:39:38;8.80;99.90
35645;DHT22;21764;52.042;6.830;2023-04-21T03:44:39;8.80;99.90
35645;DHT22;21764;52.042;6.830;2023-04-21T03:49:39;8.80;99.90
35645;DHT22;21764;52.042;6.830;2023-04-21T03:54:40;8.80;99.90
35645;DHT22;21764;52.042;6.830;2023-04-21T03:59:41;8.80;99.90
35645;DHT22;21764;52.042;6.830;2023-04-21T04:04:42;8.80;99.90
35645;DHT22;21764;52.042;6.830;2023-04-21T04:09:42;8.80;99.90
35645;DHT22;21764;52.042;6.830;2023-04-21T04:14:43;8.80;99.90
35645;DHT22;21764;52.042;6.830;2023-04-21T04:19:44;8.80;99.90
35645;DHT22;21764;52.042;6.830;2023-04-21T04:24:45;8.90;99.90
35645;DHT22;21764;52.042;6.830;2023-04-21T04:29:47;9.00;99.90
35645;DHT22;21764;52.042;6.830;2023-04-21T04:34:49;9.00;99.90
35645;DHT22;21764;52.042;6.830;2023-04-21T04:39:54;9.00;99.90
35645;DHT22;21764;52.042;6.830;2023-04-21T04:44:55;9.00;99.90
35645;DHT22;21764;52.042;6.830;2023-04-21T04:49:56;9.00;99.90
35645;DHT22;21764;52.042;6.830;2023-04-21T04:54:57;9.10;99.90
35645;DHT22;21764;52.042;6.830;2023-04-21T04:59:57;9.10;99.90
35645;DHT22;21764;52.042;6.830;2023-04-21T05:04:58;9.10;99.90
35645;DHT22;21764;52.042;6.830;2023-04-21T05:09:59;9.20;99.90
35645;DHT22;21764;52.042;6.830;2023-04-21T05:15:00;9.20;99.90
35645;DHT22;21764;52.042;6.830;2023-04-21T05:20:02;9.20;99.90
35645;DHT22;21764;52.042;6.830;2023-04-21T05:25:05;9.20;99.90
35645;DHT22;21764;52.042;6.830;2023-04-21T05:30:06;9.30;99.90
35645;DHT22;21764;52.042;6.830;2023-04-21T05:35:07;9.40;99.90
35645;DHT22;21764;52.042;6.830;2023-04-21T05:40:08;9.40;99.90
35645;DHT22;21764;52.042;6.830;2023-04-21T05:45:09;9.50;99.90
35645;DHT22;21764;52.042;6.830;2023-04-21T05:50:09;9.60;99.90
35645;DHT22;21764;52.042;6.830;2023-04-21T05:55:10;9.70;99.90
35645;DHT22;21764;52.042;6.830;2023-04-21T06:00:11;9.70;99.90
35645;DHT22;21764;52.042;6.830;2023-04-21T06:05:12;9.60;99.90
35645;DHT22;21764;52.042;6.830;2023-04-21T06:10:15;9.60;99.90
35645;DHT22;21764;52.042;6.830;2023-04-21T06:15:16;9.60;99.90
35645;DHT22;21764;52.042;6.830;2023-04-21T06:20:17;9.60;99.90
35645;DHT22;21764;52.042;6.830;2023-04-21T06:25:17;9.70;99.90
35645;DHT22;21764;52.042;6.830;2023-04-21T06:30:18;9.70;99.90
35645;DHT22;21764;52.042;6.830;2023-04-21T06:35:19;9.70;99.90
35645;DHT22;21764;52.042;6.830;2023-04-21T06:40:20;9.70;99.90
35645;DHT22;21764;52.042;6.830;2023-04-21T06:45:21;9.80;99.90
35645;DHT22;21764;52.042;6.830;2023-04-21T06:50:22;9.80;99.90
35645;DHT22;21764;52.042;6.830;2023-04-21T06:55:22;9.80;99.90
35645;DHT22;21764;52.042;6.830;2023-04-21T07:00:23;9.90;99.90
35645;DHT22;21764;52.042;6.830;2023-04-21T07:05:24;9.90;99.90
35645;DHT22;21764;52.042;6.830;2023-04-21T07:10:26;10.00;99.90
35645;DHT22;21764;52.042;6.830;2023-04-21T07:15:27;10.20;99.90
35645;DHT22;21764;52.042;6.830;2023-04-21T07:20:27;10.40;99.90
35645;DHT22;21764;52.042;6.830;2023-04-21T07:25:28;10.70;99.90
35645;DHT22;21764;52.042;6.830;2023-04-21T07:30:29;10.70;99.90
35645;DHT22;21764;52.042;6.830;2023-04-21T07:35:30;10.70;99.90
35645;DHT22;21764;52.042;6.830;2023-04-21T07:40:31;10.90;99.90
35645;DHT22;21764;52.042;6.830;2023-04-21T07:45:31;10.80;99.90
35645;DHT22;21764;52.042;6.830;2023-04-21T07:50:32;10.90;99.90
35645;DHT22;21764;52.042;6.830;2023-04-21T07:55:35;11.10;99.90
35645;DHT22;21764;52.042;6.830;2023-04-21T08:00:36;11.30;99.90
35645;DHT22;21764;52.042;6.830;2023-04-21T08:05:37;11.20;99.90
35645;DHT22;21764;52.042;6.830;2023-04-21T08:10:37;11.50;99.90
35645;DHT22;21764;52.042;6.830;2023-04-21T08:15:38;11.80;99.90
35645;DHT22;21764;52.042;6.830;2023-04-21T08:20:39;12.50;99.90
35645;DHT22;21764;52.042;6.830;2023-04-21T08:25:39;12.70;99.90
35645;DHT22;21764;52.042;6.830;2023-04-21T08:30:41;12.10;99.90
35645;DHT22;21764;52.042;6.830;2023-04-21T08:35:42;12.10;99.90
35645;DHT22;21764;52.042;6.830;2023-04-21T08:40:42;12.00;99.90
35645;DHT22;21764;52.042;6.830;2023-04-21T08:45:43;12.00;99.90
35645;DHT22;21764;52.042;6.830;2023-04-21T08:50:45;12.30;99.90
35645;DHT22;21764;52.042;6.830;2023-04-21T08:55:51;12.60;99.90
35645;DHT22;21764;52.042;6.830;2023-04-21T09:00:53;12.80;99.90
35645;DHT22;21764;52.042;6.830;2023-04-21T09:11:00;13.70;99.90
35645;DHT22;21764;52.042;6.830;2023-04-21T09:16:03;13.60;99.90
35645;DHT22;21764;52.042;6.830;2023-04-21T09:26:09;14.20;99.90
35645;DHT22;21764;52.042;6.830;2023-04-21T09:31:18;15.20;99.90
35645;DHT22;21764;52.042;6.830;2023-04-21T09:36:23;16.10;99.90
35645;DHT22;21764;52.042;6.830;2023-04-21T09:41:24;15.80;99.90
35645;DHT22;21764;52.042;6.830;2023-04-21T09:46:25;15.30;99.90
35645;DHT22;21764;52.042;6.830;2023-04-21T09:51:29;17.40;99.90
35645;DHT22;21764;52.042;6.830;2023-04-21T09:56:32;17.90;96.40
35645;DHT22;21764;52.042;6.830;2023-04-21T10:01:35;17.10;98.00
35645;DHT22;21764;52.042;6.830;2023-04-21T10:06:38;17.40;96.50
35645;DHT22;21764;52.042;6.830;2023-04-21T10:11:40;18.60;95.50
35645;DHT22;21764;52.042;6.830;2023-04-21T10:16:41;17.70;94.80
35645;DHT22;21764;52.042;6.830;2023-04-21T10:21:42;16.70;96.50
35645;DHT22;21764;52.042;6.830;2023-04-21T10:26:43;16.40;98.90
35645;DHT22;21764;52.042;6.830;2023-04-21T10:41:47;13.20;99.90
35645;DHT22;21764;52.042;6.830;2023-04-21T10:46:50;12.30;99.90
35645;DHT22;21764;52.042;6.830;2023-04-21T10:57:06;12.50;99.90
35645;DHT22;21764;52.042;6.830;2023-04-21T11:02:10;12.40;99.90
35645;DHT22;21764;52.042;6.830;2023-04-21T11:12:17;13.00;99.90
35645;DHT22;21764;52.042;6.830;2023-04-21T11:17:18;12.80;99.90
35645;DHT22;21764;52.042;6.830;2023-04-21T11:22:22;12.80;99.90
35645;DHT22;21764;52.042;6.830;2023-04-21T11:27:25;13.00;99.90
35645;DHT22;21764;52.042;6.830;2023-04-21T11:32:26;13.20;99.90
35645;DHT22;21764;52.042;6.830;2023-04-21T11:37:27;12.90;99.90
35645;DHT22;21764;52.042;6.830;2023-04-21T11:42:27;12.90;99.90
35645;DHT22;21764;52.042;6.830;2023-04-21T11:47:28;13.70;99.90
35645;DHT22;21764;52.042;6.830;2023-04-21T11:52:30;14.70;99.90
35645;DHT22;21764;52.042;6.830;2023-04-21T11:57:38;15.50;99.90
35645;DHT22;21764;52.042;6.830;2023-04-21T12:02:42;15.90;99.90
35645;DHT22;21764;52.042;6.830;2023-04-21T12:07:44;16.70;99.90
35645;DHT22;21764;52.042;6.830;2023-04-21T12:12:46;16.40;99.90
35645;DHT22;21764;52.042;6.830;2023-04-21T12:17:49;16.80;99.90
35645;DHT22;21764;52.042;6.830;2023-04-21T12:22:50;17.50;99.90
35645;DHT22;21764;52.042;6.830;2023-04-21T12:27:55;17.40;99.90
35645;DHT22;21764;52.042;6.830;2023-04-21T12:32:56;17.40;99.90
35645;DHT22;21764;52.042;6.830;2023-04-21T12:37:57;17.70;97.90
35645;DHT22;21764;52.042;6.830;2023-04-21T12:42:58;17.50;99.20
35645;DHT22;21764;52.042;6.830;2023-04-21T12:47:58;17.60;98.90
35645;DHT22;21764;52.042;6.830;2023-04-21T12:52:59;17.40;97.20
35645;DHT22;21764;52.042;6.830;2023-04-21T12:58:00;17.40;98.20
35645;DHT22;21764;52.042;6.830;2023-04-21T13:03:01;17.40;98.20
35645;DHT22;21764;52.042;6.830;2023-04-21T13:08:02;17.10;98.90
35645;DHT22;21764;52.042;6.830;2023-04-21T13:13:03;17.00;98.10
35645;DHT22;21764;52.042;6.830;2023-04-21T13:18:03;17.10;99.10
35645;DHT22;21764;52.042;6.830;2023-04-21T13:23:04;17.80;98.20
35645;DHT22;21764;52.042;6.830;2023-04-21T13:28:05;17.90;97.40
35645;DHT22;21764;52.042;6.830;2023-04-21T13:33:06;18.30;97.10
35645;DHT22;21764;52.042;6.830;2023-04-21T13:38:07;18.20;96.80
35645;DHT22;21764;52.042;6.830;2023-04-21T13:43:08;18.10;96.50
35645;DHT22;21764;52.042;6.830;2023-04-21T13:48:09;18.50;95.10
35645;DHT22;21764;52.042;6.830;2023-04-21T13:53:10;18.40;95.30
35645;DHT22;21764;52.042;6.830;2023-04-21T13:58:11;18.20;93.70
35645;DHT22;21764;52.042;6.830;2023-04-21T14:03:12;18.30;93.60
35645;DHT22;21764;52.042;6.830;2023-04-21T14:08:13;18.70;93.50
35645;DHT22;21764;52.042;6.830;2023-04-21T14:13:13;19.10;91.50
35645;DHT22;21764;52.042;6.830;2023-04-21T14:18:14;19.30;91.10
35645;DHT22;21764;52.042;6.830;2023-04-21T14:23:15;19.20;90.90
35645;DHT22;21764;52.042;6.830;2023-04-21T14:28:16;18.90;91.50
35645;DHT22;21764;52.042;6.830;2023-04-21T14:33:16;18.70;91.20
35645;DHT22;21764;52.042;6.830;2023-04-21T14:38:17;18.70;91.60
35645;DHT22;21764;52.042;6.830;2023-04-21T14:43:18;18.80;91.00
35645;DHT22;21764;52.042;6.830;2023-04-21T14:48:19;18.80;92.00
35645;DHT22;21764;52.042;6.830;2023-04-21T14:53:20;18.50;91.30
35645;DHT22;21764;52.042;6.830;2023-04-21T14:58:21;18.20;92.10
35645;DHT22;21764;52.042;6.830;2023-04-21T15:03:21;17.90;93.60
35645;DHT22;21764;52.042;6.830;2023-04-21T15:08:22;17.60;93.50
35645;DHT22;21764;52.042;6.830;2023-04-21T15:13:23;17.50;94.00
35645;DHT22;21764;52.042;6.830;2023-04-21T15:18:23;17.40;94.80
35645;DHT22;21764;52.042;6.830;2023-04-21T15:23:24;17.30;95.40
35645;DHT22;21764;52.042;6.830;2023-04-21T15:28:25;17.10;95.60
35645;DHT22;21764;52.042;6.830;2023-04-21T15:33:26;17.10;96.20
35645;DHT22;21764;52.042;6.830;2023-04-21T15:38:27;17.00;97.00
35645;DHT22;21764;52.042;6.830;2023-04-21T15:43:28;17.00;96.30
35645;DHT22;21764;52.042;6.830;2023-04-21T15:48:28;17.00;96.20
35645;DHT22;21764;52.042;6.830;2023-04-21T15:53:32;17.00;95.30
35645;DHT22;21764;52.042;6.830;2023-04-21T15:58:33;17.00;95.00
35645;DHT22;21764;52.042;6.830;2023-04-21T16:03:34;16.80;95.20
35645;DHT22;21764;52.042;6.830;2023-04-21T16:08:34;16.90;94.80
35645;DHT22;21764;52.042;6.830;2023-04-21T16:13:35;16.80;95.30
35645;DHT22;21764;52.042;6.830;2023-04-21T16:18:36;16.60;95.30
35645;DHT22;21764;52.042;6.830;2023-04-21T16:23:37;16.40;95.10
35645;DHT22;21764;52.042;6.830;2023-04-21T16:28:37;16.40;96.40
35645;DHT22;21764;52.042;6.830;2023-04-21T16:33:38;16.40;96.20
35645;DHT22;21764;52.042;6.830;2023-04-21T16:38:39;16.50;95.80
35645;DHT22;21764;52.042;6.830;2023-04-21T16:43:39;16.50;95.80
35645;DHT22;21764;52.042;6.830;2023-04-21T16:48:42;16.70;95.70
35645;DHT22;21764;52.042;6.830;2023-04-21T16:53:42;16.80;94.90
35645;DHT22;21764;52.042;6.830;2023-04-21T16:58:43;16.90;93.80
35645;DHT22;21764;52.042;6.830;2023-04-21T17:03:44;17.00;93.00
35645;DHT22;21764;52.042;6.830;2023-04-21T17:08:46;16.90;93.70
35645;DHT22;21764;52.042;6.830;2023-04-21T17:13:47;16.80;93.80
35645;DHT22;21764;52.042;6.830;2023-04-21T17:18:48;17.10;93.40
35645;DHT22;21764;52.042;6.830;2023-04-21T17:23:48;17.00;93.10
35645;DHT22;21764;52.042;6.830;2023-04-21T17:28:49;16.90;92.90
35645;DHT22;21764;52.042;6.830;2023-04-21T17:33:50;16.90;92.10
35645;DHT22;21764;52.042;6.830;2023-04-21T17:38:57;17.20;91.90
35645;DHT22;21764;52.042;6.830;2023-04-21T17:43:57;17.70;91.20
35645;DHT22;21764;52.042;6.830;2023-04-21T17:48:59;17.80;90.80
35645;DHT22;21764;52.042;6.830;2023-04-21T17:54:00;17.30;95.90
35645;DHT22;21764;52.042;6.830;2023-04-21T17:59:01;16.80;94.90
35645;DHT22;21764;52.042;6.830;2023-04-21T18:04:01;16.60;95.90
35645;DHT22;21764;52.042;6.830;2023-04-21T18:09:03;16.40;96.10
35645;DHT22;21764;52.042;6.830;2023-04-21T18:14:04;16.10;96.10
35645;DHT22;21764;52.042;6.830;2023-04-21T18:19:05;15.90;96.40
35645;DHT22;21764;52.042;6.830;2023-04-21T18:24:06;15.80;97.30
35645;DHT22;21764;52.042;6.830;2023-04-21T18:35:05;15.00;99.90
35645;DHT22;21764;52.042;6.830;2023-04-21T21:10:45;13.40;99.90
35645;DHT22;21764;52.042;6.830;2023-04-21T21:15:46;13.50;99.90
35645;DHT22;21764;52.042;6.830;2023-04-21T21:20:47;12.90;99.90
35645;DHT22;21764;52.042;6.830;2023-04-21T21:30:48;12.50;99.90
35645;DHT22;21764;52.042;6.830;2023-04-21T21:35:49;12.80;99.90
35645;DHT22;21764;52.042;6.830;2023-04-21T21:40:50;13.10;99.90
35645;DHT22;21764;52.042;6.830;2023-04-21T21:45:51;13.00;99.90
35645;DHT22;21764;52.042;6.830;2023-04-21T21:50:52;12.70;99.90
35645;DHT22;21764;52.042;6.830;2023-04-21T21:55:53;12.90;99.90
35645;DHT22;21764;52.042;6.830;2023-04-21T22:00:54;13.00;99.90
35645;DHT22;21764;52.042;6.830;2023-04-21T22:05:54;13.00;99.90
35645;DHT22;21764;52.042;6.830;2023-04-21T22:10:55;12.80;99.90
35645;DHT22;21764;52.042;6.830;2023-04-21T22:15:57;12.30;99.90
35645;DHT22;21764;52.042;6.830;2023-04-21T22:20:57;12.00;99.90
35645;DHT22;21764;52.042;6.830;2023-04-21T22:25:59;11.70;99.90
35645;DHT22;21764;52.042;6.830;2023-04-21T22:30:59;11.50;99.90
35645;DHT22;21764;52.042;6.830;2023-04-21T22:36:00;11.30;99.90
35645;DHT22;21764;52.042;6.830;2023-04-21T22:41:01;11.20;99.90
35645;DHT22;21764;52.042;6.830;2023-04-21T22:46:02;11.10;99.90
35645;DHT22;21764;52.042;6.830;2023-04-21T22:51:06;10.90;99.90
35645;DHT22;21764;52.042;6.830;2023-04-21T22:56:07;10.80;99.90
35645;DHT22;21764;52.042;6.830;2023-04-21T23:01:08;10.80;99.90
35645;DHT22;21764;52.042;6.830;2023-04-21T23:06:08;10.70;99.90
35645;DHT22;21764;52.042;6.830;2023-04-21T23:11:09;10.70;99.90
35645;DHT22;21764;52.042;6.830;2023-04-21T23:16:10;10.60;99.90
35645;DHT22;21764;52.042;6.830;2023-04-21T23:21:10;10.50;99.90
35645;DHT22;21764;52.042;6.830;2023-04-21T23:26:11;10.40;99.90
35645;DHT22;21764;52.042;6.830;2023-04-21T23:31:12;10.30;99.90
35645;DHT22;21764;52.042;6.830;2023-04-21T23:36:13;10.20;99.90
35645;DHT22;21764;52.042;6.830;2023-04-21T23:41:13;10.20;99.90
35645;DHT22;21764;52.042;6.830;2023-04-21T23:46:14;10.00;99.90
35645;DHT22;21764;52.042;6.830;2023-04-21T23:51:16;10.00;99.90
35645;DHT22;21764;52.042;6.830;2023-04-21T23:56:17;9.90;99.90
